sensor_id;sensor_type;location;lat;lon;timestamp;temperature;humidity
75615;DHT22;64199;48.578;-4.520;2023-05-07T00:00:40;20.70;68.30
75615;DHT22;64199;48.578;-4.520;2023-05-07T00:03:08;20.70;68.40
75615;DHT22;64199;48.578;-4.520;2023-05-07T00:05:34;20.70;68.40
75615;DHT22;64199;48.578;-4.520;2023-05-07T00:08:02;20.70;68.50
75615;DHT22;64199;48.578;-4.520;2023-05-07T00:10:33;20.70;68.40
75615;DHT22;64199;48.578;-4.520;2023-05-07T00:12:59;20.70;68.90
75615;DHT22;64199;48.578;-4.520;2023-05-07T00:15:25;20.70;68.50
75615;DHT22;64199;48.578;-4.520;2023-05-07T00:17:59;20.70;68.50
75615;DHT22;64199;48.578;-4.520;2023-05-07T00:20:25;20.70;68.50
75615;DHT22;64199;48.578;-4.520;2023-05-07T00:22:52;20.70;68.50
75615;DHT22;64199;48.578;-4.520;2023-05-07T00:28:11;20.70;68.50
75615;DHT22;64199;48.578;-4.520;2023-05-07T00:30:40;20.70;68.50
75615;DHT22;64199;48.578;-4.520;2023-05-07T00:33:15;20.70;68.50
75615;DHT22;64199;48.578;-4.520;2023-05-07T00:35:47;20.70;68.50
75615;DHT22;64199;48.578;-4.520;2023-05-07T00:38:13;20.70;68.50
75615;DHT22;64199;48.578;-4.520;2023-05-07T00:40:39;20.70;68.50
75615;DHT22;64199;48.578;-4.520;2023-05-07T00:43:06;20.70;68.50
75615;DHT22;64199;48.578;-4.520;2023-05-07T00:45:33;20.70;68.40
75615;DHT22;64199;48.578;-4.520;2023-05-07T00:48:02;20.70;68.50
75615;DHT22;64199;48.578;-4.520;2023-05-07T00:50:30;20.70;68.60
75615;DHT22;64199;48.578;-4.520;2023-05-07T00:52:58;20.70;68.50
75615;DHT22;64199;48.578;-4.520;2023-05-07T00:55:30;20.70;68.50
75615;DHT22;64199;48.578;-4.520;2023-05-07T00:57:56;20.70;68.60
75615;DHT22;64199;48.578;-4.520;2023-05-07T01:00:22;20.70;68.60
75615;DHT22;64199;48.578;-4.520;2023-05-07T01:02:48;20.60;68.60
75615;DHT22;64199;48.578;-4.520;2023-05-07T01:05:16;20.70;68.60
75615;DHT22;64199;48.578;-4.520;2023-05-07T01:07:43;20.70;68.50
75615;DHT22;64199;48.578;-4.520;2023-05-07T01:10:10;20.70;68.60
75615;DHT22;64199;48.578;-4.520;2023-05-07T01:12:37;20.70;68.60
75615;DHT22;64199;48.578;-4.520;2023-05-07T01:15:08;20.70;68.60
75615;DHT22;64199;48.578;-4.520;2023-05-07T01:17:43;20.60;68.50
75615;DHT22;64199;48.578;-4.520;2023-05-07T01:20:11;20.60;68.60
75615;DHT22;64199;48.578;-4.520;2023-05-07T01:22:38;20.70;68.60
75615;DHT22;64199;48.578;-4.520;2023-05-07T01:25:10;20.70;68.60
75615;DHT22;64199;48.578;-4.520;2023-05-07T01:27:35;20.60;68.60
75615;DHT22;64199;48.578;-4.520;2023-05-07T01:30:07;20.60;68.70
75615;DHT22;64199;48.578;-4.520;2023-05-07T01:33:13;20.60;68.70
75615;DHT22;64199;48.578;-4.520;2023-05-07T01:35:43;20.60;68.70
75615;DHT22;64199;48.578;-4.520;2023-05-07T01:38:11;20.60;68.70
75615;DHT22;64199;48.578;-4.520;2023-05-07T01:40:38;20.60;68.70
75615;DHT22;64199;48.578;-4.520;2023-05-07T01:43:08;20.70;68.80
75615;DHT22;64199;48.578;-4.520;2023-05-07T01:45:37;20.60;68.80
75615;DHT22;64199;48.578;-4.520;2023-05-07T01:48:12;20.60;68.80
75615;DHT22;64199;48.578;-4.520;2023-05-07T01:50:39;20.60;68.70
75615;DHT22;64199;48.578;-4.520;2023-05-07T01:53:09;20.60;68.70
75615;DHT22;64199;48.578;-4.520;2023-05-07T01:55:37;20.60;68.70
75615;DHT22;64199;48.578;-4.520;2023-05-07T01:58:04;20.60;69.50
75615;DHT22;64199;48.578;-4.520;2023-05-07T02:00:30;20.60;68.80
75615;DHT22;64199;48.578;-4.520;2023-05-07T02:02:58;20.60;68.70
75615;DHT22;64199;48.578;-4.520;2023-05-07T02:05:25;20.60;68.70
75615;DHT22;64199;48.578;-4.520;2023-05-07T02:07:52;20.60;68.80
75615;DHT22;64199;48.578;-4.520;2023-05-07T02:10:19;20.60;68.80
75615;DHT22;64199;48.578;-4.520;2023-05-07T02:12:44;20.60;68.70
75615;DHT22;64199;48.578;-4.520;2023-05-07T02:15:18;20.60;68.70
75615;DHT22;64199;48.578;-4.520;2023-05-07T02:18:03;20.60;68.80
75615;DHT22;64199;48.578;-4.520;2023-05-07T02:20:30;20.60;68.80
75615;DHT22;64199;48.578;-4.520;2023-05-07T02:22:56;20.60;68.80
75615;DHT22;64199;48.578;-4.520;2023-05-07T02:25:23;20.60;68.90
75615;DHT22;64199;48.578;-4.520;2023-05-07T02:27:49;20.60;68.90
75615;DHT22;64199;48.578;-4.520;2023-05-07T02:30:16;20.60;68.90
75615;DHT22;64199;48.578;-4.520;2023-05-07T02:32:42;20.60;68.80
75615;DHT22;64199;48.578;-4.520;2023-05-07T02:35:11;20.60;68.80
75615;DHT22;64199;48.578;-4.520;2023-05-07T02:37:37;20.60;68.90
75615;DHT22;64199;48.578;-4.520;2023-05-07T02:40:07;20.60;68.70
75615;DHT22;64199;48.578;-4.520;2023-05-07T02:42:33;20.60;68.70
75615;DHT22;64199;48.578;-4.520;2023-05-07T02:44:59;20.60;68.70
75615;DHT22;64199;48.578;-4.520;2023-05-07T02:47:26;20.60;68.70
75615;DHT22;64199;48.578;-4.520;2023-05-07T02:50:06;20.50;68.60
75615;DHT22;64199;48.578;-4.520;2023-05-07T02:52:35;20.50;68.60
75615;DHT22;64199;48.578;-4.520;2023-05-07T02:55:02;20.50;68.60
75615;DHT22;64199;48.578;-4.520;2023-05-07T02:57:39;20.50;68.60
75615;DHT22;64199;48.578;-4.520;2023-05-07T03:00:13;20.50;68.60
75615;DHT22;64199;48.578;-4.520;2023-05-07T03:02:43;20.50;68.60
75615;DHT22;64199;48.578;-4.520;2023-05-07T03:05:09;20.50;68.60
75615;DHT22;64199;48.578;-4.520;2023-05-07T03:07:39;20.50;68.60
75615;DHT22;64199;48.578;-4.520;2023-05-07T03:10:10;20.50;68.60
75615;DHT22;64199;48.578;-4.520;2023-05-07T03:12:38;20.50;68.70
75615;DHT22;64199;48.578;-4.520;2023-05-07T03:15:04;20.50;68.70
75615;DHT22;64199;48.578;-4.520;2023-05-07T03:17:40;20.50;68.70
75615;DHT22;64199;48.578;-4.520;2023-05-07T03:20:08;20.50;68.80
75615;DHT22;64199;48.578;-4.520;2023-05-07T03:22:38;20.50;68.80
75615;DHT22;64199;48.578;-4.520;2023-05-07T03:25:07;20.50;68.90
75615;DHT22;64199;48.578;-4.520;2023-05-07T03:27:37;20.50;68.90
75615;DHT22;64199;48.578;-4.520;2023-05-07T03:30:12;20.50;68.90
75615;DHT22;64199;48.578;-4.520;2023-05-07T03:32:38;20.50;68.90
75615;DHT22;64199;48.578;-4.520;2023-05-07T03:35:06;20.50;68.90
75615;DHT22;64199;48.578;-4.520;2023-05-07T03:37:34;20.40;68.80
75615;DHT22;64199;48.578;-4.520;2023-05-07T03:40:00;20.40;68.80
75615;DHT22;64199;48.578;-4.520;2023-05-07T03:42:28;20.40;68.80
75615;DHT22;64199;48.578;-4.520;2023-05-07T03:44:54;20.40;68.80
75615;DHT22;64199;48.578;-4.520;2023-05-07T03:47:20;20.40;68.70
75615;DHT22;64199;48.578;-4.520;2023-05-07T03:49:47;20.40;68.70
75615;DHT22;64199;48.578;-4.520;2023-05-07T03:52:15;20.40;68.70
75615;DHT22;64199;48.578;-4.520;2023-05-07T03:54:41;20.40;68.70
75615;DHT22;64199;48.578;-4.520;2023-05-07T03:57:07;20.40;68.70
75615;DHT22;64199;48.578;-4.520;2023-05-07T03:59:33;20.40;68.70
75615;DHT22;64199;48.578;-4.520;2023-05-07T04:02:00;20.40;68.60
75615;DHT22;64199;48.578;-4.520;2023-05-07T04:04:32;20.40;68.60
75615;DHT22;64199;48.578;-4.520;2023-05-07T04:06:58;20.40;68.60
75615;DHT22;64199;48.578;-4.520;2023-05-07T04:09:26;20.40;68.70
75615;DHT22;64199;48.578;-4.520;2023-05-07T04:11:51;20.40;68.60
75615;DHT22;64199;48.578;-4.520;2023-05-07T04:14:17;20.40;68.60
75615;DHT22;64199;48.578;-4.520;2023-05-07T04:16:44;20.40;68.60
75615;DHT22;64199;48.578;-4.520;2023-05-07T04:19:10;20.40;68.60
75615;DHT22;64199;48.578;-4.520;2023-05-07T04:21:41;20.40;68.60
75615;DHT22;64199;48.578;-4.520;2023-05-07T04:24:08;20.30;68.50
75615;DHT22;64199;48.578;-4.520;2023-05-07T04:26:35;20.30;68.50
75615;DHT22;64199;48.578;-4.520;2023-05-07T04:29:02;20.30;68.60
75615;DHT22;64199;48.578;-4.520;2023-05-07T04:31:40;20.30;68.50
75615;DHT22;64199;48.578;-4.520;2023-05-07T04:34:10;20.30;69.40
75615;DHT22;64199;48.578;-4.520;2023-05-07T04:36:42;20.30;68.60
75615;DHT22;64199;48.578;-4.520;2023-05-07T04:39:08;20.30;68.60
75615;DHT22;64199;48.578;-4.520;2023-05-07T04:41:36;20.30;68.60
75615;DHT22;64199;48.578;-4.520;2023-05-07T04:46:49;20.30;68.70
75615;DHT22;64199;48.578;-4.520;2023-05-07T04:49:37;20.30;68.60
75615;DHT22;64199;48.578;-4.520;2023-05-07T04:52:02;20.30;68.70
75615;DHT22;64199;48.578;-4.520;2023-05-07T04:54:32;20.30;68.80
75615;DHT22;64199;48.578;-4.520;2023-05-07T04:56:58;20.30;68.90
75615;DHT22;64199;48.578;-4.520;2023-05-07T04:59:24;20.30;68.90
75615;DHT22;64199;48.578;-4.520;2023-05-07T05:01:50;20.30;69.00
75615;DHT22;64199;48.578;-4.520;2023-05-07T05:04:17;20.20;69.00
75615;DHT22;64199;48.578;-4.520;2023-05-07T05:06:49;20.20;69.00
75615;DHT22;64199;48.578;-4.520;2023-05-07T05:09:15;20.20;69.00
75615;DHT22;64199;48.578;-4.520;2023-05-07T05:11:43;20.30;69.10
75615;DHT22;64199;48.578;-4.520;2023-05-07T05:14:09;20.20;69.20
75615;DHT22;64199;48.578;-4.520;2023-05-07T05:16:35;20.20;69.10
75615;DHT22;64199;48.578;-4.520;2023-05-07T05:19:02;20.20;69.20
75615;DHT22;64199;48.578;-4.520;2023-05-07T05:21:29;20.20;69.30
75615;DHT22;64199;48.578;-4.520;2023-05-07T05:23:55;20.20;69.30
75615;DHT22;64199;48.578;-4.520;2023-05-07T05:26:21;20.30;69.40
75615;DHT22;64199;48.578;-4.520;2023-05-07T05:28:47;20.20;69.30
75615;DHT22;64199;48.578;-4.520;2023-05-07T05:31:15;20.20;69.40
75615;DHT22;64199;48.578;-4.520;2023-05-07T05:33:42;20.20;69.50
75615;DHT22;64199;48.578;-4.520;2023-05-07T05:36:11;20.20;69.50
75615;DHT22;64199;48.578;-4.520;2023-05-07T05:38:39;20.20;69.40
75615;DHT22;64199;48.578;-4.520;2023-05-07T05:41:06;20.20;69.40
75615;DHT22;64199;48.578;-4.520;2023-05-07T05:43:32;20.20;69.30
75615;DHT22;64199;48.578;-4.520;2023-05-07T05:45:58;20.20;69.20
75615;DHT22;64199;48.578;-4.520;2023-05-07T05:48:24;20.20;69.20
75615;DHT22;64199;48.578;-4.520;2023-05-07T05:50:50;20.20;69.20
75615;DHT22;64199;48.578;-4.520;2023-05-07T05:53:20;20.20;69.20
75615;DHT22;64199;48.578;-4.520;2023-05-07T05:55:51;20.20;69.30
75615;DHT22;64199;48.578;-4.520;2023-05-07T05:58:17;20.20;69.30
75615;DHT22;64199;48.578;-4.520;2023-05-07T06:00:45;20.20;69.30
75615;DHT22;64199;48.578;-4.520;2023-05-07T06:03:12;20.20;69.30
75615;DHT22;64199;48.578;-4.520;2023-05-07T06:05:39;20.20;69.30
75615;DHT22;64199;48.578;-4.520;2023-05-07T06:08:05;20.10;69.30
75615;DHT22;64199;48.578;-4.520;2023-05-07T06:10:31;20.10;69.30
75615;DHT22;64199;48.578;-4.520;2023-05-07T06:12:59;20.10;69.30
75615;DHT22;64199;48.578;-4.520;2023-05-07T06:15:26;20.20;69.30
75615;DHT22;64199;48.578;-4.520;2023-05-07T06:17:52;20.10;69.20
75615;DHT22;64199;48.578;-4.520;2023-05-07T06:20:19;20.10;69.20
75615;DHT22;64199;48.578;-4.520;2023-05-07T06:22:46;20.10;69.30
75615;DHT22;64199;48.578;-4.520;2023-05-07T06:25:13;20.10;69.30
75615;DHT22;64199;48.578;-4.520;2023-05-07T06:27:39;20.10;69.30
75615;DHT22;64199;48.578;-4.520;2023-05-07T06:30:10;20.10;69.30
75615;DHT22;64199;48.578;-4.520;2023-05-07T06:32:45;20.10;69.40
75615;DHT22;64199;48.578;-4.520;2023-05-07T06:35:12;20.10;69.40
75615;DHT22;64199;48.578;-4.520;2023-05-07T06:37:44;20.10;69.40
75615;DHT22;64199;48.578;-4.520;2023-05-07T06:40:11;20.10;69.40
75615;DHT22;64199;48.578;-4.520;2023-05-07T06:42:40;20.10;70.20
75615;DHT22;64199;48.578;-4.520;2023-05-07T06:45:10;20.10;69.40
75615;DHT22;64199;48.578;-4.520;2023-05-07T06:47:39;20.10;69.40
75615;DHT22;64199;48.578;-4.520;2023-05-07T06:50:08;20.10;69.40
75615;DHT22;64199;48.578;-4.520;2023-05-07T06:52:35;20.10;69.40
75615;DHT22;64199;48.578;-4.520;2023-05-07T06:55:02;20.10;69.40
75615;DHT22;64199;48.578;-4.520;2023-05-07T06:57:29;20.00;69.30
75615;DHT22;64199;48.578;-4.520;2023-05-07T06:59:55;20.00;69.30
75615;DHT22;64199;48.578;-4.520;2023-05-07T07:02:23;20.10;69.40
75615;DHT22;64199;48.578;-4.520;2023-05-07T07:04:49;20.10;69.50
75615;DHT22;64199;48.578;-4.520;2023-05-07T07:07:16;20.10;69.40
75615;DHT22;64199;48.578;-4.520;2023-05-07T07:09:43;20.00;69.30
75615;DHT22;64199;48.578;-4.520;2023-05-07T07:12:10;20.10;69.40
75615;DHT22;64199;48.578;-4.520;2023-05-07T07:14:36;20.00;69.30
75615;DHT22;64199;48.578;-4.520;2023-05-07T07:17:02;20.00;69.30
75615;DHT22;64199;48.578;-4.520;2023-05-07T07:22:08;20.10;69.30
75615;DHT22;64199;48.578;-4.520;2023-05-07T07:24:33;20.00;69.20
75615;DHT22;64199;48.578;-4.520;2023-05-07T07:26:59;20.00;69.30
75615;DHT22;64199;48.578;-4.520;2023-05-07T07:29:26;20.00;69.20
75615;DHT22;64199;48.578;-4.520;2023-05-07T07:31:53;20.00;69.30
75615;DHT22;64199;48.578;-4.520;2023-05-07T07:34:20;20.10;69.30
75615;DHT22;64199;48.578;-4.520;2023-05-07T07:36:47;20.00;69.30
75615;DHT22;64199;48.578;-4.520;2023-05-07T07:39:13;20.00;69.30
75615;DHT22;64199;48.578;-4.520;2023-05-07T07:41:42;20.00;69.30
75615;DHT22;64199;48.578;-4.520;2023-05-07T07:44:08;20.00;69.30
75615;DHT22;64199;48.578;-4.520;2023-05-07T07:46:41;20.00;69.30
75615;DHT22;64199;48.578;-4.520;2023-05-07T07:49:07;20.00;69.30
75615;DHT22;64199;48.578;-4.520;2023-05-07T07:51:36;20.00;69.30
75615;DHT22;64199;48.578;-4.520;2023-05-07T07:54:05;20.00;69.30
75615;DHT22;64199;48.578;-4.520;2023-05-07T07:56:57;20.10;69.40
75615;DHT22;64199;48.578;-4.520;2023-05-07T07:59:23;20.00;69.30
75615;DHT22;64199;48.578;-4.520;2023-05-07T08:01:53;20.00;69.30
75615;DHT22;64199;48.578;-4.520;2023-05-07T08:04:21;20.10;69.50
75615;DHT22;64199;48.578;-4.520;2023-05-07T08:06:47;20.00;69.40
75615;DHT22;64199;48.578;-4.520;2023-05-07T08:09:13;20.00;69.50
75615;DHT22;64199;48.578;-4.520;2023-05-07T08:11:43;20.00;69.50
75615;DHT22;64199;48.578;-4.520;2023-05-07T08:14:09;20.10;69.70
75615;DHT22;64199;48.578;-4.520;2023-05-07T08:16:35;20.10;69.80
75615;DHT22;64199;48.578;-4.520;2023-05-07T08:19:04;20.10;69.90
75615;DHT22;64199;48.578;-4.520;2023-05-07T08:21:34;20.20;70.10
75615;DHT22;64199;48.578;-4.520;2023-05-07T08:24:01;20.20;70.10
75615;DHT22;64199;48.578;-4.520;2023-05-07T08:26:33;20.20;70.20
75615;DHT22;64199;48.578;-4.520;2023-05-07T08:29:07;20.30;70.30
75615;DHT22;64199;48.578;-4.520;2023-05-07T08:31:35;20.30;70.40
75615;DHT22;64199;48.578;-4.520;2023-05-07T08:34:05;20.30;70.40
75615;DHT22;64199;48.578;-4.520;2023-05-07T08:36:41;20.40;70.50
75615;DHT22;64199;48.578;-4.520;2023-05-07T08:39:12;20.40;70.60
75615;DHT22;64199;48.578;-4.520;2023-05-07T08:41:38;20.40;70.60
75615;DHT22;64199;48.578;-4.520;2023-05-07T08:44:13;20.50;70.60
75615;DHT22;64199;48.578;-4.520;2023-05-07T08:46:47;20.50;70.60
75615;DHT22;64199;48.578;-4.520;2023-05-07T08:49:20;20.50;70.60
75615;DHT22;64199;48.578;-4.520;2023-05-07T08:51:47;20.60;70.70
75615;DHT22;64199;48.578;-4.520;2023-05-07T08:54:17;20.70;70.70
75615;DHT22;64199;48.578;-4.520;2023-05-07T08:56:48;20.70;70.70
75615;DHT22;64199;48.578;-4.520;2023-05-07T08:59:17;20.70;70.70
75615;DHT22;64199;48.578;-4.520;2023-05-07T09:01:45;20.80;70.70
75615;DHT22;64199;48.578;-4.520;2023-05-07T09:04:11;20.80;70.70
75615;DHT22;64199;48.578;-4.520;2023-05-07T09:06:43;20.90;70.60
75615;DHT22;64199;48.578;-4.520;2023-05-07T09:09:17;20.90;70.60
75615;DHT22;64199;48.578;-4.520;2023-05-07T09:11:47;20.90;70.60
75615;DHT22;64199;48.578;-4.520;2023-05-07T09:14:21;20.90;70.40
75615;DHT22;64199;48.578;-4.520;2023-05-07T09:16:48;20.90;70.30
75615;DHT22;64199;48.578;-4.520;2023-05-07T09:19:25;20.90;70.10
75615;DHT22;64199;48.578;-4.520;2023-05-07T09:22:00;20.90;70.00
75615;DHT22;64199;48.578;-4.520;2023-05-07T09:24:49;20.90;69.90
75615;DHT22;64199;48.578;-4.520;2023-05-07T09:27:17;20.90;69.80
75615;DHT22;64199;48.578;-4.520;2023-05-07T09:29:44;20.90;69.70
75615;DHT22;64199;48.578;-4.520;2023-05-07T09:32:12;20.90;69.60
75615;DHT22;64199;48.578;-4.520;2023-05-07T09:34:45;20.90;69.50
75615;DHT22;64199;48.578;-4.520;2023-05-07T09:37:14;20.90;69.40
75615;DHT22;64199;48.578;-4.520;2023-05-07T09:39:48;20.90;69.40
75615;DHT22;64199;48.578;-4.520;2023-05-07T09:42:22;20.90;69.50
75615;DHT22;64199;48.578;-4.520;2023-05-07T09:44:55;20.90;69.30
75615;DHT22;64199;48.578;-4.520;2023-05-07T09:47:32;20.90;69.20
75615;DHT22;64199;48.578;-4.520;2023-05-07T09:50:09;20.90;69.10
75615;DHT22;64199;48.578;-4.520;2023-05-07T09:52:40;20.90;69.00
75615;DHT22;64199;48.578;-4.520;2023-05-07T09:55:10;20.90;69.30
75615;DHT22;64199;48.578;-4.520;2023-05-07T09:57:39;20.90;69.00
75615;DHT22;64199;48.578;-4.520;2023-05-07T10:00:10;20.90;68.90
75615;DHT22;64199;48.578;-4.520;2023-05-07T10:02:37;20.90;68.80
75615;DHT22;64199;48.578;-4.520;2023-05-07T10:05:15;20.90;68.70
75615;DHT22;64199;48.578;-4.520;2023-05-07T10:07:51;20.90;68.60
75615;DHT22;64199;48.578;-4.520;2023-05-07T10:10:25;20.90;68.60
75615;DHT22;64199;48.578;-4.520;2023-05-07T10:12:52;20.90;68.60
75615;DHT22;64199;48.578;-4.520;2023-05-07T10:15:18;20.90;68.60
75615;DHT22;64199;48.578;-4.520;2023-05-07T10:17:45;20.90;68.60
75615;DHT22;64199;48.578;-4.520;2023-05-07T10:20:12;20.90;68.60
75615;DHT22;64199;48.578;-4.520;2023-05-07T10:22:45;20.90;68.50
75615;DHT22;64199;48.578;-4.520;2023-05-07T10:25:22;20.90;68.50
75615;DHT22;64199;48.578;-4.520;2023-05-07T10:27:50;20.90;68.50
75615;DHT22;64199;48.578;-4.520;2023-05-07T10:30:27;20.90;68.50
75615;DHT22;64199;48.578;-4.520;2023-05-07T10:33:01;20.90;68.60
75615;DHT22;64199;48.578;-4.520;2023-05-07T10:35:36;20.90;68.50
75615;DHT22;64199;48.578;-4.520;2023-05-07T10:38:10;20.90;68.50
75615;DHT22;64199;48.578;-4.520;2023-05-07T10:40:36;20.90;68.50
75615;DHT22;64199;48.578;-4.520;2023-05-07T10:43:06;20.90;68.50
75615;DHT22;64199;48.578;-4.520;2023-05-07T10:45:33;20.90;68.50
75615;DHT22;64199;48.578;-4.520;2023-05-07T10:48:13;20.90;68.50
75615;DHT22;64199;48.578;-4.520;2023-05-07T10:50:49;20.90;68.50
75615;DHT22;64199;48.578;-4.520;2023-05-07T10:53:38;20.90;68.50
75615;DHT22;64199;48.578;-4.520;2023-05-07T10:58:48;20.90;68.50
75615;DHT22;64199;48.578;-4.520;2023-05-07T11:01:13;20.90;68.50
75615;DHT22;64199;48.578;-4.520;2023-05-07T11:04:15;20.90;69.30
75615;DHT22;64199;48.578;-4.520;2023-05-07T11:15:13;20.90;68.50
75615;DHT22;64199;48.578;-4.520;2023-05-07T11:18:02;20.90;68.50
75615;DHT22;64199;48.578;-4.520;2023-05-07T11:20:55;20.90;68.50
75615;DHT22;64199;48.578;-4.520;2023-05-07T11:26:10;20.90;68.50
75615;DHT22;64199;48.578;-4.520;2023-05-07T11:28:41;20.90;68.50
75615;DHT22;64199;48.578;-4.520;2023-05-07T11:31:07;20.90;68.40
75615;DHT22;64199;48.578;-4.520;2023-05-07T11:33:34;20.90;68.40
75615;DHT22;64199;48.578;-4.520;2023-05-07T11:36:02;20.90;68.40
75615;DHT22;64199;48.578;-4.520;2023-05-07T11:38:33;20.90;68.40
75615;DHT22;64199;48.578;-4.520;2023-05-07T11:41:06;20.90;68.40
75615;DHT22;64199;48.578;-4.520;2023-05-07T11:43:34;20.90;68.50
75615;DHT22;64199;48.578;-4.520;2023-05-07T11:46:20;21.00;68.50
75615;DHT22;64199;48.578;-4.520;2023-05-07T11:48:46;20.90;68.40
75615;DHT22;64199;48.578;-4.520;2023-05-07T11:51:12;20.90;68.50
75615;DHT22;64199;48.578;-4.520;2023-05-07T11:53:43;21.00;68.70
75615;DHT22;64199;48.578;-4.520;2023-05-07T11:56:17;21.00;68.60
75615;DHT22;64199;48.578;-4.520;2023-05-07T11:58:45;21.00;68.60
75615;DHT22;64199;48.578;-4.520;2023-05-07T12:01:13;21.00;68.60
75615;DHT22;64199;48.578;-4.520;2023-05-07T12:03:45;21.00;68.50
75615;DHT22;64199;48.578;-4.520;2023-05-07T12:06:16;21.00;68.50
75615;DHT22;64199;48.578;-4.520;2023-05-07T12:08:46;21.00;68.50
75615;DHT22;64199;48.578;-4.520;2023-05-07T12:11:25;21.00;68.50
75615;DHT22;64199;48.578;-4.520;2023-05-07T12:13:51;21.00;68.50
75615;DHT22;64199;48.578;-4.520;2023-05-07T12:16:23;21.00;68.50
75615;DHT22;64199;48.578;-4.520;2023-05-07T12:18:59;21.00;68.50
75615;DHT22;64199;48.578;-4.520;2023-05-07T12:21:28;21.00;68.50
75615;DHT22;64199;48.578;-4.520;2023-05-07T12:23:57;21.10;68.50
75615;DHT22;64199;48.578;-4.520;2023-05-07T12:26:24;21.00;68.50
75615;DHT22;64199;48.578;-4.520;2023-05-07T12:28:50;21.00;68.50
75615;DHT22;64199;48.578;-4.520;2023-05-07T12:31:16;21.00;68.40
75615;DHT22;64199;48.578;-4.520;2023-05-07T12:33:42;21.00;68.40
75615;DHT22;64199;48.578;-4.520;2023-05-07T12:36:08;21.00;68.40
75615;DHT22;64199;48.578;-4.520;2023-05-07T12:38:36;21.10;68.40
75615;DHT22;64199;48.578;-4.520;2023-05-07T12:41:07;21.00;69.20
75615;DHT22;64199;48.578;-4.520;2023-05-07T12:43:34;21.00;68.40
75615;DHT22;64199;48.578;-4.520;2023-05-07T12:46:06;21.00;68.40
75615;DHT22;64199;48.578;-4.520;2023-05-07T12:48:33;21.00;68.40
75615;DHT22;64199;48.578;-4.520;2023-05-07T12:51:02;21.10;68.50
75615;DHT22;64199;48.578;-4.520;2023-05-07T12:53:30;21.10;68.50
75615;DHT22;64199;48.578;-4.520;2023-05-07T12:55:58;21.00;68.50
75615;DHT22;64199;48.578;-4.520;2023-05-07T12:58:27;21.10;68.50
75615;DHT22;64199;48.578;-4.520;2023-05-07T13:00:55;21.10;68.50
75615;DHT22;64199;48.578;-4.520;2023-05-07T13:03:31;21.10;68.50
75615;DHT22;64199;48.578;-4.520;2023-05-07T13:06:06;21.10;69.30
75615;DHT22;64199;48.578;-4.520;2023-05-07T13:08:35;21.10;68.50
75615;DHT22;64199;48.578;-4.520;2023-05-07T13:11:04;21.10;68.50
75615;DHT22;64199;48.578;-4.520;2023-05-07T13:13:49;21.10;68.50
75615;DHT22;64199;48.578;-4.520;2023-05-07T13:16:18;21.10;68.60
75615;DHT22;64199;48.578;-4.520;2023-05-07T13:18:50;21.10;68.60
75615;DHT22;64199;48.578;-4.520;2023-05-07T13:21:19;21.10;68.80
75615;DHT22;64199;48.578;-4.520;2023-05-07T13:23:54;21.10;68.90
75615;DHT22;64199;48.578;-4.520;2023-05-07T13:26:26;21.20;69.00
75615;DHT22;64199;48.578;-4.520;2023-05-07T13:28:59;21.20;68.80
75615;DHT22;64199;48.578;-4.520;2023-05-07T13:31:25;21.20;68.70
75615;DHT22;64199;48.578;-4.520;2023-05-07T13:33:52;21.30;68.60
75615;DHT22;64199;48.578;-4.520;2023-05-07T13:36:18;21.30;68.60
75615;DHT22;64199;48.578;-4.520;2023-05-07T13:38:44;21.40;68.50
75615;DHT22;64199;48.578;-4.520;2023-05-07T13:41:10;21.40;68.30
75615;DHT22;64199;48.578;-4.520;2023-05-07T13:43:41;21.50;68.20
75615;DHT22;64199;48.578;-4.520;2023-05-07T13:46:10;21.60;68.10
75615;DHT22;64199;48.578;-4.520;2023-05-07T13:48:36;21.60;67.90
75615;DHT22;64199;48.578;-4.520;2023-05-07T13:51:05;21.70;67.70
75615;DHT22;64199;48.578;-4.520;2023-05-07T13:53:34;21.70;67.50
75615;DHT22;64199;48.578;-4.520;2023-05-07T13:56:02;21.80;67.40
75615;DHT22;64199;48.578;-4.520;2023-05-07T13:58:36;21.80;67.20
75615;DHT22;64199;48.578;-4.520;2023-05-07T14:01:03;21.80;67.10
75615;DHT22;64199;48.578;-4.520;2023-05-07T14:03:32;21.90;67.00
75615;DHT22;64199;48.578;-4.520;2023-05-07T14:06:00;21.90;66.80
75615;DHT22;64199;48.578;-4.520;2023-05-07T14:08:27;22.00;66.80
75615;DHT22;64199;48.578;-4.520;2023-05-07T14:11:05;22.00;66.80
75615;DHT22;64199;48.578;-4.520;2023-05-07T14:13:31;22.00;66.70
75615;DHT22;64199;48.578;-4.520;2023-05-07T14:16:04;22.00;66.50
75615;DHT22;64199;48.578;-4.520;2023-05-07T14:18:30;22.00;66.50
75615;DHT22;64199;48.578;-4.520;2023-05-07T14:21:01;22.00;66.40
75615;DHT22;64199;48.578;-4.520;2023-05-07T14:23:28;22.10;66.40
75615;DHT22;64199;48.578;-4.520;2023-05-07T14:25:55;22.00;66.30
75615;DHT22;64199;48.578;-4.520;2023-05-07T14:28:23;22.00;66.30
75615;DHT22;64199;48.578;-4.520;2023-05-07T14:30:50;22.10;66.40
75615;DHT22;64199;48.578;-4.520;2023-05-07T14:33:19;22.00;66.30
75615;DHT22;64199;48.578;-4.520;2023-05-07T14:36:00;22.10;66.30
75615;DHT22;64199;48.578;-4.520;2023-05-07T14:38:30;22.10;66.30
75615;DHT22;64199;48.578;-4.520;2023-05-07T14:40:59;22.10;66.30
75615;DHT22;64199;48.578;-4.520;2023-05-07T14:43:26;22.10;66.30
75615;DHT22;64199;48.578;-4.520;2023-05-07T14:45:54;22.10;66.40
75615;DHT22;64199;48.578;-4.520;2023-05-07T14:48:20;22.10;66.40
75615;DHT22;64199;48.578;-4.520;2023-05-07T14:50:47;22.10;66.40
75615;DHT22;64199;48.578;-4.520;2023-05-07T14:53:17;22.20;66.40
75615;DHT22;64199;48.578;-4.520;2023-05-07T14:55:42;22.20;66.30
75615;DHT22;64199;48.578;-4.520;2023-05-07T14:58:08;22.10;66.30
75615;DHT22;64199;48.578;-4.520;2023-05-07T15:00:44;22.20;66.30
75615;DHT22;64199;48.578;-4.520;2023-05-07T15:03:16;22.20;66.30
75615;DHT22;64199;48.578;-4.520;2023-05-07T15:05:43;22.20;66.30
75615;DHT22;64199;48.578;-4.520;2023-05-07T15:08:09;22.20;66.30
75615;DHT22;64199;48.578;-4.520;2023-05-07T15:10:40;22.20;66.30
75615;DHT22;64199;48.578;-4.520;2023-05-07T15:13:07;22.20;66.30
75615;DHT22;64199;48.578;-4.520;2023-05-07T15:15:34;22.30;66.40
75615;DHT22;64199;48.578;-4.520;2023-05-07T15:18:06;22.30;66.30
75615;DHT22;64199;48.578;-4.520;2023-05-07T15:20:36;22.20;66.20
75615;DHT22;64199;48.578;-4.520;2023-05-07T15:23:09;22.30;66.30
75615;DHT22;64199;48.578;-4.520;2023-05-07T15:25:38;22.20;67.00
75615;DHT22;64199;48.578;-4.520;2023-05-07T15:28:04;22.30;66.30
75615;DHT22;64199;48.578;-4.520;2023-05-07T15:30:32;22.30;66.20
75615;DHT22;64199;48.578;-4.520;2023-05-07T15:33:07;22.30;66.20
75615;DHT22;64199;48.578;-4.520;2023-05-07T15:35:37;22.30;66.20
75615;DHT22;64199;48.578;-4.520;2023-05-07T15:38:04;22.30;66.10
75615;DHT22;64199;48.578;-4.520;2023-05-07T15:40:30;22.30;66.10
75615;DHT22;64199;48.578;-4.520;2023-05-07T15:43:03;22.30;66.10
75615;DHT22;64199;48.578;-4.520;2023-05-07T15:45:29;22.30;66.10
75615;DHT22;64199;48.578;-4.520;2023-05-07T15:47:55;22.30;66.10
75615;DHT22;64199;48.578;-4.520;2023-05-07T15:50:21;22.30;66.20